N1157K KPBI-
Flight info
| Callsign | N1157K |
|---|---|
| Flight time | N/A |
| Altitude | |
| Route | |
| Aircraft | M20P/L-DOV/C |
Departure
| Time | 2026-04-26 22:14 |
|---|---|
| Airport | Palm Beach International Airport (KPBI) |
Arrival
| Time | N/A |
|---|---|
| Airport | - |
| Time | Latitude | Longitude | Altitude | Speed | Heading |
|---|---|---|---|---|---|
| 2026-04-26 22:09 | 26.67958 | -80.09559 | 11 ft | 0 kts | 182° |
| 2026-04-26 22:10 | 26.67978 | -80.09574 | 19 ft | 12 kts | 5° |
| 2026-04-26 22:10 | 26.68030 | -80.09590 | 19 ft | 10 kts | 278° |
| 2026-04-26 22:10 | 26.68035 | -80.09688 | 18 ft | 16 kts | 275° |
| 2026-04-26 22:11 | 26.68043 | -80.09834 | 20 ft | 22 kts | 274° |
| 2026-04-26 22:11 | 26.68051 | -80.10006 | 20 ft | 24 kts | 273° |
| 2026-04-26 22:11 | 26.68058 | -80.10207 | 19 ft | 27 kts | 271° |
| 2026-04-26 22:11 | 26.68067 | -80.10366 | 21 ft | 14 kts | 273° |
| 2026-04-26 22:12 | 26.68071 | -80.10500 | 20 ft | 20 kts | 273° |
| 2026-04-26 22:12 | 26.68074 | -80.10547 | 19 ft | 0 kts | 275° |
| 2026-04-26 22:13 | 26.68104 | -80.10571 | 18 ft | 14 kts | 28° |
| 2026-04-26 22:13 | 26.68116 | -80.10548 | 18 ft | 7 kts | 94° |
| 2026-04-26 22:13 | 26.68108 | -80.10258 | 23 ft | 67 kts | 91° |
| 2026-04-26 22:13 | 26.68118 | -80.09615 | 175 ft | 97 kts | 98° |
| 2026-04-26 22:14 | 26.68095 | -80.08800 | 414 ft | 114 kts | 102° |
| 2026-04-26 22:14 | 26.67653 | -80.08182 | 619 ft | 112 kts | 169° |
| 2026-04-26 22:14 | 26.66849 | -80.08128 | 715 ft | 114 kts | 185° |
| 2026-04-26 22:14 | 26.66268 | -80.08733 | 875 ft | 130 kts | 256° |
| 2026-04-26 22:15 | 26.66300 | -80.09810 | 903 ft | 143 kts | 271° |
| 2026-04-26 22:15 | 26.66461 | -80.10923 | 918 ft | 146 kts | 279° |
| 2026-04-26 22:15 | 26.66594 | -80.11665 | 882 ft | 151 kts | 275° |
| 2026-04-26 22:15 | 26.66819 | -80.13028 | 768 ft | 110 kts | 276° |
| 2026-04-26 22:16 | 26.66918 | -80.13562 | 690 ft | 105 kts | 279° |
| 2026-04-26 22:16 | 26.67467 | -80.14040 | 689 ft | 118 kts | 5° |
| 2026-04-26 22:16 | 26.68240 | -80.13759 | 740 ft | 103 kts | 49° |
| 2026-04-26 22:16 | 26.68300 | -80.13030 | 516 ft | 103 kts | 116° |
| 2026-04-26 22:17 | 26.68170 | -80.12258 | 356 ft | 104 kts | 90° |
| 2026-04-26 22:17 | 26.68172 | -80.11530 | 258 ft | 83 kts | 101° |
| 2026-04-26 22:17 | 26.68142 | -80.10903 | 94 ft | 81 kts | 102° |
| 2026-04-26 22:17 | 26.68108 | -80.10392 | 8 ft | 34 kts | 100° |
| 2026-04-26 22:18 | 26.68080 | -80.10303 | 24 ft | 0 kts | 187° |
| 2026-04-26 22:18 | 26.68064 | -80.10286 | 8 ft | 0 kts | 90° |
| 2026-04-26 22:19 | 26.68064 | -80.10282 | 8 ft | 5 kts | 89° |
| 2026-04-26 22:19 | 26.68056 | -80.10158 | 6 ft | 12 kts | 83° |
| 2026-04-26 22:19 | 26.67995 | -80.10140 | 20 ft | 10 kts | 176° |
| 2026-04-26 22:19 | 26.67985 | -80.10122 | 20 ft | 0 kts | 6° |